sensor_id;sensor_type;location;lat;lon;timestamp;pressure;altitude;pressure_sealevel;temperature;humidity
70833;BME280;58452;59.418;17.962;2022-12-18T00:00:43;101941.72;;;-1.32;87.85
70833;BME280;58452;59.418;17.962;2022-12-18T00:03:08;101936.78;;;-1.38;87.72
70833;BME280;58452;59.418;17.962;2022-12-18T00:05:34;101937.63;;;-1.38;88.72
70833;BME280;58452;59.418;17.962;2022-12-18T00:08:00;101941.53;;;-1.25;88.39
70833;BME280;58452;59.418;17.962;2022-12-18T00:10:27;101934.81;;;-1.26;88.41
70833;BME280;58452;59.418;17.962;2022-12-18T00:12:52;101931.19;;;-1.16;87.27
70833;BME280;58452;59.418;17.962;2022-12-18T00:15:18;101935.13;;;-1.06;87.51
70833;BME280;58452;59.418;17.962;2022-12-18T00:17:44;101938.59;;;-1.10;87.37
70833;BME280;58452;59.418;17.962;2022-12-18T00:20:09;101936.06;;;-1.10;86.76
70833;BME280;58452;59.418;17.962;2022-12-18T00:22:35;101937.53;;;-1.00;87.13
70833;BME280;58452;59.418;17.962;2022-12-18T00:25:00;101948.91;;;-1.16;87.83
70833;BME280;58452;59.418;17.962;2022-12-18T00:27:26;101936.03;;;-1.07;86.84
70833;BME280;58452;59.418;17.962;2022-12-18T00:29:51;101937.84;;;-1.12;87.32
70833;BME280;58452;59.418;17.962;2022-12-18T00:32:17;101943.81;;;-1.14;87.73
70833;BME280;58452;59.418;17.962;2022-12-18T00:34:42;101926.09;;;-1.16;87.80
70833;BME280;58452;59.418;17.962;2022-12-18T00:37:08;101928.56;;;-1.13;87.18
70833;BME280;58452;59.418;17.962;2022-12-18T00:39:34;101927.53;;;-1.06;87.00
70833;BME280;58452;59.418;17.962;2022-12-18T00:41:59;101917.56;;;-1.12;87.60
70833;BME280;58452;59.418;17.962;2022-12-18T00:44:43;101920.50;;;-0.94;86.94
70833;BME280;58452;59.418;17.962;2022-12-18T00:47:09;101921.03;;;-1.14;87.24
70833;BME280;58452;59.418;17.962;2022-12-18T00:49:34;101915.81;;;-1.10;87.91
70833;BME280;58452;59.418;17.962;2022-12-18T00:52:00;101916.13;;;-1.22;88.17
70833;BME280;58452;59.418;17.962;2022-12-18T00:54:25;101930.94;;;-1.40;89.04
70833;BME280;58452;59.418;17.962;2022-12-18T00:56:51;101925.16;;;-1.45;89.39
70833;BME280;58452;59.418;17.962;2022-12-18T00:59:17;101925.03;;;-1.41;89.90
70833;BME280;58452;59.418;17.962;2022-12-18T01:01:43;101925.19;;;-1.47;89.37
70833;BME280;58452;59.418;17.962;2022-12-18T01:04:09;101929.94;;;-1.35;89.33
70833;BME280;58452;59.418;17.962;2022-12-18T01:06:35;101935.06;;;-1.36;88.99
70833;BME280;58452;59.418;17.962;2022-12-18T01:09:00;101933.22;;;-1.30;88.70
70833;BME280;58452;59.418;17.962;2022-12-18T01:11:26;101933.22;;;-1.30;88.58
70833;BME280;58452;59.418;17.962;2022-12-18T01:13:52;101941.53;;;-1.25;88.47
70833;BME280;58452;59.418;17.962;2022-12-18T01:16:18;101937.72;;;-1.42;89.63
70833;BME280;58452;59.418;17.962;2022-12-18T01:18:44;101949.28;;;-1.31;89.10
70833;BME280;58452;59.418;17.962;2022-12-18T01:21:12;101943.09;;;-1.21;89.19
70833;BME280;58452;59.418;17.962;2022-12-18T01:23:38;101950.03;;;-1.27;89.06
70833;BME280;58452;59.418;17.962;2022-12-18T01:26:09;101941.59;;;-1.28;89.13
70833;BME280;58452;59.418;17.962;2022-12-18T01:28:35;101934.66;;;-1.20;88.70
70833;BME280;58452;59.418;17.962;2022-12-18T01:31:31;101939.25;;;-1.35;88.83
70833;BME280;58452;59.418;17.962;2022-12-18T01:33:57;101935.66;;;-1.25;89.17
70833;BME280;58452;59.418;17.962;2022-12-18T01:36:26;101936.41;;;-1.22;89.04
70833;BME280;58452;59.418;17.962;2022-12-18T01:38:53;101922.56;;;-1.09;88.88
70833;BME280;58452;59.418;17.962;2022-12-18T01:41:21;101915.75;;;-1.07;88.95
70833;BME280;58452;59.418;17.962;2022-12-18T01:43:53;101913.84;;;-0.99;88.23
70833;BME280;58452;59.418;17.962;2022-12-18T01:46:21;101917.19;;;-0.96;88.27
70833;BME280;58452;59.418;17.962;2022-12-18T01:48:48;101906.66;;;-0.81;87.11
70833;BME280;58452;59.418;17.962;2022-12-18T01:51:15;101907.97;;;-0.68;87.04
70833;BME280;58452;59.418;17.962;2022-12-18T01:53:43;101902.91;;;-0.68;86.51
70833;BME280;58452;59.418;17.962;2022-12-18T01:56:12;101902.06;;;-0.69;86.07
70833;BME280;58452;59.418;17.962;2022-12-18T01:59:02;101905.69;;;-0.77;86.70
70833;BME280;58452;59.418;17.962;2022-12-18T02:01:31;101906.38;;;-0.72;85.60
70833;BME280;58452;59.418;17.962;2022-12-18T02:06:50;101894.50;;;-1.01;87.08
70833;BME280;58452;59.418;17.962;2022-12-18T02:09:21;101902.06;;;-1.00;87.29
70833;BME280;58452;59.418;17.962;2022-12-18T02:12:22;101894.00;;;-0.83;86.79
70833;BME280;58452;59.418;17.962;2022-12-18T02:15:12;101900.75;;;-0.82;87.08
70833;BME280;58452;59.418;17.962;2022-12-18T02:17:52;101905.28;;;-0.94;87.18
70833;BME280;58452;59.418;17.962;2022-12-18T02:20:30;101905.53;;;-1.04;88.11
70833;BME280;58452;59.418;17.962;2022-12-18T02:25:40;101899.47;;;-0.98;87.76
70833;BME280;58452;59.418;17.962;2022-12-18T02:28:13;101904.72;;;-1.06;88.42
70833;BME280;58452;59.418;17.962;2022-12-18T02:30:41;101908.94;;;-1.05;88.39
70833;BME280;58452;59.418;17.962;2022-12-18T02:33:08;101898.41;;;-1.22;88.82
70833;BME280;58452;59.418;17.962;2022-12-18T02:35:38;101896.56;;;-1.15;88.25
70833;BME280;58452;59.418;17.962;2022-12-18T02:38:06;101891.28;;;-1.08;88.32
70833;BME280;58452;59.418;17.962;2022-12-18T02:40:31;101894.56;;;-1.04;88.44
70833;BME280;58452;59.418;17.962;2022-12-18T02:43:11;101898.03;;;-1.07;87.90
70833;BME280;58452;59.418;17.962;2022-12-18T02:45:57;101888.38;;;-0.92;87.65
70833;BME280;58452;59.418;17.962;2022-12-18T02:48:32;101887.34;;;-0.87;87.51
70833;BME280;58452;59.418;17.962;2022-12-18T02:56:20;101877.88;;;-0.80;86.55
70833;BME280;58452;59.418;17.962;2022-12-18T02:59:51;101889.34;;;-0.98;87.20
70833;BME280;58452;59.418;17.962;2022-12-18T03:02:05;101895.00;;;-0.88;86.69
70833;BME280;58452;59.418;17.962;2022-12-18T03:04:58;101898.63;;;-0.99;86.53
70833;BME280;58452;59.418;17.962;2022-12-18T03:07:34;101891.28;;;-1.08;86.59
70833;BME280;58452;59.418;17.962;2022-12-18T03:10:02;101875.38;;;-1.13;87.02
70833;BME280;58452;59.418;17.962;2022-12-18T03:12:31;101879.38;;;-1.04;86.88
70833;BME280;58452;59.418;17.962;2022-12-18T03:15:14;101865.00;;;-1.04;86.48
70833;BME280;58452;59.418;17.962;2022-12-18T03:17:48;101871.41;;;-0.90;86.26
70833;BME280;58452;59.418;17.962;2022-12-18T03:20:19;101865.22;;;-0.80;86.02
70833;BME280;58452;59.418;17.962;2022-12-18T03:22:49;101870.25;;;-0.79;85.71
70833;BME280;58452;59.418;17.962;2022-12-18T03:25:17;101852.03;;;-0.62;84.63
70833;BME280;58452;59.418;17.962;2022-12-18T03:27:49;101854.13;;;-0.76;85.55
70833;BME280;58452;59.418;17.962;2022-12-18T03:30:17;101862.34;;;-0.68;85.06
70833;BME280;58452;59.418;17.962;2022-12-18T03:32:56;101857.09;;;-0.62;84.18
70833;BME280;58452;59.418;17.962;2022-12-18T03:35:27;101856.19;;;-0.60;84.18
70833;BME280;58452;59.418;17.962;2022-12-18T03:37:54;101854.66;;;-0.65;83.35
70833;BME280;58452;59.418;17.962;2022-12-18T03:40:22;101856.41;;;-0.67;84.05
70833;BME280;58452;59.418;17.962;2022-12-18T03:43:00;101865.59;;;-0.63;84.80
70833;BME280;58452;59.418;17.962;2022-12-18T03:45:35;101862.16;;;-0.62;84.34
70833;BME280;58452;59.418;17.962;2022-12-18T03:51:01;101865.69;;;-0.37;83.29
70833;BME280;58452;59.418;17.962;2022-12-18T03:53:57;101855.56;;;-0.38;83.39
70833;BME280;58452;59.418;17.962;2022-12-18T03:56:26;101854.66;;;-0.65;83.38
70833;BME280;58452;59.418;17.962;2022-12-18T03:58:55;101852.22;;;-0.68;83.89
70833;BME280;58452;59.418;17.962;2022-12-18T04:01:28;101855.28;;;-0.57;82.86
70833;BME280;58452;59.418;17.962;2022-12-18T04:03:56;101846.84;;;-0.58;83.19
70833;BME280;58452;59.418;17.962;2022-12-18T04:06:22;101855.19;;;-0.54;83.15
70833;BME280;58452;59.418;17.962;2022-12-18T04:08:48;101869.09;;;-0.67;82.37
70833;BME280;58452;59.418;17.962;2022-12-18T04:11:15;101864.94;;;-1.01;84.55
70833;BME280;58452;59.418;17.962;2022-12-18T04:13:42;101861.53;;;-1.00;84.33
70833;BME280;58452;59.418;17.962;2022-12-18T04:16:07;101867.56;;;-1.05;84.62
70833;BME280;58452;59.418;17.962;2022-12-18T04:18:34;101859.13;;;-1.04;84.58
70833;BME280;58452;59.418;17.962;2022-12-18T04:21:00;101866.06;;;-1.12;85.59
70833;BME280;58452;59.418;17.962;2022-12-18T04:23:26;101868.97;;;-1.26;85.48
70833;BME280;58452;59.418;17.962;2022-12-18T04:25:52;101871.13;;;-1.12;85.50
70833;BME280;58452;59.418;17.962;2022-12-18T04:28:17;101876.97;;;-1.09;84.82
70833;BME280;58452;59.418;17.962;2022-12-18T04:30:43;101870.97;;;-1.06;85.04
70833;BME280;58452;59.418;17.962;2022-12-18T04:33:12;101876.97;;;-1.09;84.95
70833;BME280;58452;59.418;17.962;2022-12-18T04:35:39;101874.22;;;-1.01;84.79
70833;BME280;58452;59.418;17.962;2022-12-18T04:38:06;101881.72;;;-0.96;84.19
70833;BME280;58452;59.418;17.962;2022-12-18T04:40:35;101863.25;;;-1.02;84.63
70833;BME280;58452;59.418;17.962;2022-12-18T04:43:00;101870.66;;;-0.94;83.83
70833;BME280;58452;59.418;17.962;2022-12-18T04:45:26;101861.19;;;-0.87;83.92
70833;BME280;58452;59.418;17.962;2022-12-18T04:47:51;101853.94;;;-1.00;84.49
70833;BME280;58452;59.418;17.962;2022-12-18T04:50:17;101843.53;;;-0.90;84.40
70833;BME280;58452;59.418;17.962;2022-12-18T04:52:42;101837.28;;;-0.77;83.43
70833;BME280;58452;59.418;17.962;2022-12-18T04:55:08;101824.53;;;-0.76;83.14
70833;BME280;58452;59.418;17.962;2022-12-18T04:57:33;101816.16;;;-0.78;83.13
70833;BME280;58452;59.418;17.962;2022-12-18T04:59:58;101816.16;;;-0.78;83.37
70833;BME280;58452;59.418;17.962;2022-12-18T05:02:24;101812.19;;;-0.88;83.02
70833;BME280;58452;59.418;17.962;2022-12-18T05:04:49;101817.72;;;-1.03;83.39
70833;BME280;58452;59.418;17.962;2022-12-18T05:07:15;101806.66;;;-1.01;83.35
70833;BME280;58452;59.418;17.962;2022-12-18T05:09:40;101814.81;;;-0.91;83.73
70833;BME280;58452;59.418;17.962;2022-12-18T05:12:06;101807.75;;;-0.80;83.20
70833;BME280;58452;59.418;17.962;2022-12-18T05:14:31;101800.59;;;-0.66;82.61
70833;BME280;58452;59.418;17.962;2022-12-18T05:16:57;101795.06;;;-0.78;82.39
70833;BME280;58452;59.418;17.962;2022-12-18T05:19:22;101799.38;;;-0.82;82.73
70833;BME280;58452;59.418;17.962;2022-12-18T05:21:47;101795.09;;;-0.80;82.41
70833;BME280;58452;59.418;17.962;2022-12-18T05:24:13;101810.94;;;-0.73;82.58
70833;BME280;58452;59.418;17.962;2022-12-18T05:26:38;101816.00;;;-0.73;82.30
70833;BME280;58452;59.418;17.962;2022-12-18T05:29:04;101803.69;;;-0.85;83.05
70833;BME280;58452;59.418;17.962;2022-12-18T05:31:29;101798.88;;;-0.94;83.41
70833;BME280;58452;59.418;17.962;2022-12-18T05:33:55;101796.13;;;-0.87;83.33
70833;BME280;58452;59.418;17.962;2022-12-18T05:36:20;101790.59;;;-1.00;84.21
70833;BME280;58452;59.418;17.962;2022-12-18T05:38:46;101798.50;;;-0.81;83.67
70833;BME280;58452;59.418;17.962;2022-12-18T05:41:11;101794.91;;;-1.03;83.87
70833;BME280;58452;59.418;17.962;2022-12-18T05:43:38;101781.16;;;-0.94;83.85
70833;BME280;58452;59.418;17.962;2022-12-18T05:46:06;101781.84;;;-0.89;83.65
70833;BME280;58452;59.418;17.962;2022-12-18T05:48:31;101783.69;;;-0.94;83.87
70833;BME280;58452;59.418;17.962;2022-12-18T05:51:04;101783.78;;;-0.99;84.04
70833;BME280;58452;59.418;17.962;2022-12-18T05:53:30;101785.69;;;-1.06;84.74
70833;BME280;58452;59.418;17.962;2022-12-18T05:55:59;101783.53;;;-0.88;83.97
70833;BME280;58452;59.418;17.962;2022-12-18T05:58:25;101788.66;;;-0.91;84.22
70833;BME280;58452;59.418;17.962;2022-12-18T06:00:50;101784.13;;;-0.80;83.43
70833;BME280;58452;59.418;17.962;2022-12-18T06:03:16;101783.16;;;-0.76;83.14
70833;BME280;58452;59.418;17.962;2022-12-18T06:05:44;101773.75;;;-0.73;83.40
70833;BME280;58452;59.418;17.962;2022-12-18T06:08:10;101781.44;;;-0.74;83.31
70833;BME280;58452;59.418;17.962;2022-12-18T06:10:37;101768.22;;;-0.85;84.08
70833;BME280;58452;59.418;17.962;2022-12-18T06:13:03;101778.25;;;-0.81;83.74
70833;BME280;58452;59.418;17.962;2022-12-18T06:15:29;101769.97;;;-0.87;84.07
70833;BME280;58452;59.418;17.962;2022-12-18T06:17:54;101769.88;;;-0.84;83.58
70833;BME280;58452;59.418;17.962;2022-12-18T06:20:20;101778.19;;;-0.79;83.43
70833;BME280;58452;59.418;17.962;2022-12-18T06:22:46;101777.66;;;-0.90;82.89
70833;BME280;58452;59.418;17.962;2022-12-18T06:25:11;101766.38;;;-0.80;83.02
70833;BME280;58452;59.418;17.962;2022-12-18T06:27:37;101761.41;;;-0.83;82.67
70833;BME280;58452;59.418;17.962;2022-12-18T06:30:04;101771.41;;;-0.79;83.18
70833;BME280;58452;59.418;17.962;2022-12-18T06:32:30;101762.53;;;-0.64;82.92
70833;BME280;58452;59.418;17.962;2022-12-18T06:34:55;101758.47;;;-0.70;82.83
70833;BME280;58452;59.418;17.962;2022-12-18T06:37:21;101754.22;;;-0.69;83.22
70833;BME280;58452;59.418;17.962;2022-12-18T06:39:49;101752.66;;;-0.73;82.65
70833;BME280;58452;59.418;17.962;2022-12-18T06:42:15;101755.97;;;-0.71;83.00
70833;BME280;58452;59.418;17.962;2022-12-18T06:44:40;101761.16;;;-0.74;82.73
70833;BME280;58452;59.418;17.962;2022-12-18T06:47:06;101758.75;;;-0.79;83.61
70833;BME280;58452;59.418;17.962;2022-12-18T06:49:31;101771.28;;;-0.74;82.25
70833;BME280;58452;59.418;17.962;2022-12-18T06:51:57;101766.03;;;-0.68;82.58
70833;BME280;58452;59.418;17.962;2022-12-18T06:54:22;101766.84;;;-0.66;82.54
70833;BME280;58452;59.418;17.962;2022-12-18T06:56:47;101774.44;;;-0.66;82.71
70833;BME280;58452;59.418;17.962;2022-12-18T06:59:13;101762.63;;;-0.67;82.00
70833;BME280;58452;59.418;17.962;2022-12-18T07:01:40;101767.69;;;-0.67;81.85
70833;BME280;58452;59.418;17.962;2022-12-18T07:04:05;101778.00;;;-0.73;82.88
70833;BME280;58452;59.418;17.962;2022-12-18T07:06:30;101781.75;;;-0.86;83.21
70833;BME280;58452;59.418;17.962;2022-12-18T07:08:56;101783.59;;;-0.91;82.64
70833;BME280;58452;59.418;17.962;2022-12-18T07:11:21;101795.16;;;-0.81;83.08
70833;BME280;58452;59.418;17.962;2022-12-18T07:13:47;101793.06;;;-0.69;82.54
70833;BME280;58452;59.418;17.962;2022-12-18T07:16:18;101786.06;;;-0.59;81.88
70833;BME280;58452;59.418;17.962;2022-12-18T07:18:44;101786.22;;;-0.65;82.05
70833;BME280;58452;59.418;17.962;2022-12-18T07:21:13;101779.25;;;-0.59;81.41
70833;BME280;58452;59.418;17.962;2022-12-18T07:23:39;101794.31;;;-0.53;81.21
70833;BME280;58452;59.418;17.962;2022-12-18T07:26:10;101791.19;;;-0.62;81.98
70833;BME280;58452;59.418;17.962;2022-12-18T07:28:37;101789.75;;;-0.71;81.90
70833;BME280;58452;59.418;17.962;2022-12-18T07:31:08;101776.66;;;-0.56;81.79
70833;BME280;58452;59.418;17.962;2022-12-18T07:33:34;101781.63;;;-0.53;81.78
70833;BME280;58452;59.418;17.962;2022-12-18T07:36:04;101779.72;;;-0.46;81.67
70833;BME280;58452;59.418;17.962;2022-12-18T07:38:30;101793.38;;;-0.50;81.68
70833;BME280;58452;59.418;17.962;2022-12-18T07:41:04;101772.22;;;-0.49;81.36
70833;BME280;58452;59.418;17.962;2022-12-18T07:43:29;101777.09;;;-0.43;81.97
70833;BME280;58452;59.418;17.962;2022-12-18T07:45:55;101779.22;;;-0.57;82.74
70833;BME280;58452;59.418;17.962;2022-12-18T07:48:20;101777.66;;;-0.61;82.79
70833;BME280;58452;59.418;17.962;2022-12-18T07:50:46;101766.13;;;-0.71;83.48
70833;BME280;58452;59.418;17.962;2022-12-18T07:53:11;101776.69;;;-0.57;83.38
70833;BME280;58452;59.418;17.962;2022-12-18T07:55:37;101781.63;;;-0.53;83.51
70833;BME280;58452;59.418;17.962;2022-12-18T07:58:03;101780.50;;;-0.44;83.02
70833;BME280;58452;59.418;17.962;2022-12-18T08:00:29;101787.97;;;-0.39;82.18
70833;BME280;58452;59.418;17.962;2022-12-18T08:02:55;101793.69;;;-0.61;82.65
70833;BME280;58452;59.418;17.962;2022-12-18T08:05:20;101783.41;;;-0.56;83.71
70833;BME280;58452;59.418;17.962;2022-12-18T08:07:46;101792.94;;;-0.64;83.78
70833;BME280;58452;59.418;17.962;2022-12-18T08:10:12;101781.03;;;-0.62;83.08
70833;BME280;58452;59.418;17.962;2022-12-18T08:12:37;101774.25;;;-0.60;83.35
70833;BME280;58452;59.418;17.962;2022-12-18T08:15:03;101772.66;;;-0.64;84.28
70833;BME280;58452;59.418;17.962;2022-12-18T08:17:28;101765.69;;;-0.56;84.18
70833;BME280;58452;59.418;17.962;2022-12-18T08:19:54;101767.59;;;-0.64;84.77
70833;BME280;58452;59.418;17.962;2022-12-18T08:22:19;101754.00;;;-0.62;84.75
70833;BME280;58452;59.418;17.962;2022-12-18T08:24:45;101755.34;;;-0.50;84.45
70833;BME280;58452;59.418;17.962;2022-12-18T08:27:10;101757.44;;;-0.36;83.79
70833;BME280;58452;59.418;17.962;2022-12-18T08:29:36;101748.34;;;-0.42;84.85
70833;BME280;58452;59.418;17.962;2022-12-18T08:32:01;101752.47;;;-0.39;83.86
70833;BME280;58452;59.418;17.962;2022-12-18T08:34:27;101761.75;;;-0.38;84.44
70833;BME280;58452;59.418;17.962;2022-12-18T08:36:52;101763.66;;;-0.45;85.39
70833;BME280;58452;59.418;17.962;2022-12-18T08:39:18;101748.34;;;-0.42;85.51
70833;BME280;58452;59.418;17.962;2022-12-18T08:41:43;101756.44;;;-0.31;84.96
70833;BME280;58452;59.418;17.962;2022-12-18T08:44:28;101753.59;;;-0.22;84.52
70833;BME280;58452;59.418;17.962;2022-12-18T08:47:04;101757.53;;;-0.12;84.72
70833;BME280;58452;59.418;17.962;2022-12-18T08:49:30;101750.47;;;-0.04;84.25
70833;BME280;58452;59.418;17.962;2022-12-18T08:51:56;101755.06;;;-0.15;84.24
70833;BME280;58452;59.418;17.962;2022-12-18T08:54:24;101757.47;;;-0.10;84.40
70833;BME280;58452;59.418;17.962;2022-12-18T08:56:50;101766.28;;;-0.22;84.89
70833;BME280;58452;59.418;17.962;2022-12-18T08:59:16;101753.94;;;-0.06;84.39
70833;BME280;58452;59.418;17.962;2022-12-18T09:01:42;101754.03;;;-0.08;84.74
70833;BME280;58452;59.418;17.962;2022-12-18T09:04:09;101758.88;;;-0.02;84.58
70833;BME280;58452;59.418;17.962;2022-12-18T09:06:35;101759.88;;;-0.06;85.62
70833;BME280;58452;59.418;17.962;2022-12-18T09:09:00;101768.91;;;0.03;85.45
70833;BME280;58452;59.418;17.962;2022-12-18T09:11:27;101758.41;;;0.14;84.62
70833;BME280;58452;59.418;17.962;2022-12-18T09:13:54;101754.09;;;0.16;84.61
70833;BME280;58452;59.418;17.962;2022-12-18T09:16:20;101756.22;;;0.28;84.66
70833;BME280;58452;59.418;17.962;2022-12-18T09:18:47;101746.66;;;0.36;84.53
70833;BME280;58452;59.418;17.962;2022-12-18T09:21:15;101746.66;;;0.36;84.34
70833;BME280;58452;59.418;17.962;2022-12-18T09:23:41;101738.25;;;0.34;84.10
70833;BME280;58452;59.418;17.962;2022-12-18T09:26:07;101745.19;;;0.29;84.31
70833;BME280;58452;59.418;17.962;2022-12-18T09:28:32;101721.91;;;0.41;83.89
70833;BME280;58452;59.418;17.962;2022-12-18T09:30:58;101726.69;;;0.50;83.70
70833;BME280;58452;59.418;17.962;2022-12-18T09:33:23;101721.34;;;0.58;84.09
70833;BME280;58452;59.418;17.962;2022-12-18T09:35:49;101714.75;;;0.52;84.10
70833;BME280;58452;59.418;17.962;2022-12-18T09:38:17;101709.56;;;0.55;83.61
70833;BME280;58452;59.418;17.962;2022-12-18T09:40:48;101712.78;;;0.60;83.34
70833;BME280;58452;59.418;17.962;2022-12-18T09:43:28;101702.56;;;0.62;83.83
70833;BME280;58452;59.418;17.962;2022-12-18T09:45:59;101702.31;;;0.69;83.20
70833;BME280;58452;59.418;17.962;2022-12-18T09:48:39;101686.94;;;0.72;83.59
70833;BME280;58452;59.418;17.962;2022-12-18T09:51:12;101692.63;;;0.56;83.59
70833;BME280;58452;59.418;17.962;2022-12-18T09:53:41;101689.69;;;0.66;84.18
70833;BME280;58452;59.418;17.962;2022-12-18T09:56:12;101673.69;;;0.64;83.62
70833;BME280;58452;59.418;17.962;2022-12-18T10:01:21;101679.38;;;0.71;84.53
70833;BME280;58452;59.418;17.962;2022-12-18T10:03:48;101678.53;;;0.70;84.52
70833;BME280;58452;59.418;17.962;2022-12-18T10:11:46;101660.16;;;0.87;83.99
70833;BME280;58452;59.418;17.962;2022-12-18T10:20:16;101655.50;;;0.75;85.63
70833;BME280;58452;59.418;17.962;2022-12-18T10:23:03;101652.44;;;0.88;84.69
70833;BME280;58452;59.418;17.962;2022-12-18T10:28:16;101662.97;;;0.79;85.16
70833;BME280;58452;59.418;17.962;2022-12-18T10:30:43;101669.00;;;0.77;85.31
70833;BME280;58452;59.418;17.962;2022-12-18T10:33:21;101655.94;;;0.86;85.15
70833;BME280;58452;59.418;17.962;2022-12-18T10:35:50;101666.50;;;0.98;84.36
70833;BME280;58452;59.418;17.962;2022-12-18T10:48:27;101673.41;;;1.17;84.16
70833;BME280;58452;59.418;17.962;2022-12-18T10:50:53;101674.09;;;0.98;84.29
70833;BME280;58452;59.418;17.962;2022-12-18T10:53:26;101665.66;;;0.98;85.29
70833;BME280;58452;59.418;17.962;2022-12-18T10:55:55;101664.47;;;1.07;85.11
70833;BME280;58452;59.418;17.962;2022-12-18T11:01:15;101677.16;;;1.07;85.00
70833;BME280;58452;59.418;17.962;2022-12-18T11:04:00;101664.06;;;1.17;84.64
70833;BME280;58452;59.418;17.962;2022-12-18T11:06:26;101659.88;;;1.16;84.76
70833;BME280;58452;59.418;17.962;2022-12-18T11:09:07;101666.28;;;1.25;84.28
70833;BME280;58452;59.418;17.962;2022-12-18T11:11:51;101671.03;;;1.12;84.90
70833;BME280;58452;59.418;17.962;2022-12-18T11:14:43;101668.44;;;1.14;84.78
70833;BME280;58452;59.418;17.962;2022-12-18T11:17:18;101671.88;;;1.13;84.97
70833;BME280;58452;59.418;17.962;2022-12-18T11:19:44;101679.25;;;1.19;84.65
70833;BME280;58452;59.418;17.962;2022-12-18T11:22:21;101661.22;;;1.25;84.63
70833;BME280;58452;59.418;17.962;2022-12-18T11:27:48;101655.31;;;1.03;85.39
70833;BME280;58452;59.418;17.962;2022-12-18T11:30:34;101640.66;;;1.09;85.37
70833;BME280;58452;59.418;17.962;2022-12-18T11:33:09;101643.25;;;1.08;85.50
70833;BME280;58452;59.418;17.962;2022-12-18T11:35:49;101649.63;;;1.18;85.31
70833;BME280;58452;59.418;17.962;2022-12-18T11:38:23;101660.69;;;1.17;85.27
70833;BME280;58452;59.418;17.962;2022-12-18T11:41:05;101678.94;;;1.05;86.27
70833;BME280;58452;59.418;17.962;2022-12-18T11:43:53;101665.50;;;1.03;85.87
70833;BME280;58452;59.418;17.962;2022-12-18T11:46:39;101647.69;;;1.03;86.38
70833;BME280;58452;59.418;17.962;2022-12-18T11:49:17;101653.06;;;1.17;86.11
70833;BME280;58452;59.418;17.962;2022-12-18T11:51:54;101650.41;;;1.20;85.90
70833;BME280;58452;59.418;17.962;2022-12-18T11:54:20;101647.63;;;1.26;85.12
70833;BME280;58452;59.418;17.962;2022-12-18T11:57:34;101651.81;;;1.27;85.41
70833;BME280;58452;59.418;17.962;2022-12-18T12:00:12;101650.16;;;1.26;85.36
70833;BME280;58452;59.418;17.962;2022-12-18T12:03:16;101643.31;;;1.28;85.63
70833;BME280;58452;59.418;17.962;2022-12-18T12:30:39;101683.69;;;1.35;86.08
70833;BME280;58452;59.418;17.962;2022-12-18T12:33:48;101678.91;;;1.28;86.18
70833;BME280;58452;59.418;17.962;2022-12-18T12:39:07;101658.03;;;1.41;85.93
70833;BME280;58452;59.418;17.962;2022-12-18T12:41:35;101657.88;;;1.44;86.01
70833;BME280;58452;59.418;17.962;2022-12-18T12:44:25;101667.50;;;1.38;86.33
70833;BME280;58452;59.418;17.962;2022-12-18T12:46:58;101668.63;;;1.31;86.83
70833;BME280;58452;59.418;17.962;2022-12-18T12:49:31;101679.94;;;1.44;86.74
70833;BME280;58452;59.418;17.962;2022-12-18T12:52:07;101664.69;;;1.44;86.76
70833;BME280;58452;59.418;17.962;2022-12-18T12:54:35;101671.91;;;1.55;86.34
70833;BME280;58452;59.418;17.962;2022-12-18T12:59:52;101669.13;;;1.61;86.15
70833;BME280;58452;59.418;17.962;2022-12-18T13:08:06;101674.34;;;1.58;86.78
70833;BME280;58452;59.418;17.962;2022-12-18T13:10:40;101640.94;;;1.65;86.34
70833;BME280;58452;59.418;17.962;2022-12-18T13:13:13;101648.63;;;1.64;86.21
70833;BME280;58452;59.418;17.962;2022-12-18T13:15:49;101650.31;;;1.65;86.55
70833;BME280;58452;59.418;17.962;2022-12-18T13:18:28;101642.91;;;1.59;86.88
70833;BME280;58452;59.418;17.962;2022-12-18T13:25:45;101641.53;;;1.72;86.20
70833;BME280;58452;59.418;17.962;2022-12-18T13:28:14;101649.88;;;1.75;86.40
70833;BME280;58452;59.418;17.962;2022-12-18T13:30:46;101656.72;;;1.73;86.59
70833;BME280;58452;59.418;17.962;2022-12-18T13:38:38;101652.16;;;1.81;86.23
70833;BME280;58452;59.418;17.962;2022-12-18T13:41:26;101659.91;;;1.78;86.71
70833;BME280;58452;59.418;17.962;2022-12-18T13:43:54;101665.25;;;1.72;86.73
70833;BME280;58452;59.418;17.962;2022-12-18T13:46:41;101667.53;;;1.78;86.53
70833;BME280;58452;59.418;17.962;2022-12-18T13:51:42;101659.25;;;1.73;87.08
70833;BME280;58452;59.418;17.962;2022-12-18T13:54:33;101660.78;;;1.77;86.58
70833;BME280;58452;59.418;17.962;2022-12-18T13:57:01;101677.72;;;1.78;86.74
70833;BME280;58452;59.418;17.962;2022-12-18T13:59:40;101670.59;;;1.86;86.46
70833;BME280;58452;59.418;17.962;2022-12-18T14:02:14;101652.28;;;1.78;86.51
70833;BME280;58452;59.418;17.962;2022-12-18T14:04:40;101658.63;;;1.88;86.50
70833;BME280;58452;59.418;17.962;2022-12-18T14:07:06;101664.28;;;1.95;86.05
70833;BME280;58452;59.418;17.962;2022-12-18T14:09:52;101673.91;;;1.88;86.26
70833;BME280;58452;59.418;17.962;2022-12-18T14:12:29;101661.69;;;1.96;86.20
70833;BME280;58452;59.418;17.962;2022-12-18T14:17:57;101662.66;;;1.94;85.95
70833;BME280;58452;59.418;17.962;2022-12-18T14:20:25;101667.84;;;1.91;86.11
70833;BME280;58452;59.418;17.962;2022-12-18T14:22:51;101664.56;;;1.89;86.32
70833;BME280;58452;59.418;17.962;2022-12-18T14:25:23;101667.28;;;1.84;86.38
70833;BME280;58452;59.418;17.962;2022-12-18T14:30:38;101657.06;;;1.86;86.73
70833;BME280;58452;59.418;17.962;2022-12-18T14:33:30;101657.06;;;1.86;86.45
70833;BME280;58452;59.418;17.962;2022-12-18T14:36:04;101660.66;;;1.80;86.12
70833;BME280;58452;59.418;17.962;2022-12-18T14:38:38;101654.25;;;1.92;86.15